Time;durP1;ratioP1;P1;durP2;ratioP2;P2;SDS_P1;SDS_P2;PMS_P1;PMS_P2;Temp;Humidity;BMP_temperature;BMP_pressure;BME280_temperature;BME280_humidity;BME280_pressure;Samples;Min_cycle;Max_cycle;Signal;HPM_P1;HPM_P2
2021/06/20 11:09:36;;;;;;;;;6.67;3.67;;;;;37.50;25.50;100318.88;5109459;27;45667;-68
2021/06/20 11:12:05;;;;;;;;;2.00;2.00;;;;;36.26;24.85;100314.31;5080506;27;45752;-77
2021/06/20 11:14:41;;;;;;;;;1.67;1.67;;;;;35.23;25.36;100295.41;5080512;27;45325;-77
2021/06/20 11:17:06;;;;;;;;;3.00;3.00;;;;;34.68;26.22;100277.13;5087579;27;45321;-77
2021/06/20 11:19:32;;;;;;;;;3.00;3.00;;;;;34.35;26.17;100268.75;5087321;27;52592;-77
2021/06/20 11:22:04;;;;;;;;;4.00;3.00;;;;;34.07;27.42;100286.88;5083300;27;45238;-77
2021/06/20 11:24:34;;;;;;;;;4.00;4.00;;;;;33.93;27.95;100273.16;5088429;27;45547;-79
2021/06/20 11:27:00;;;;;;;;;3.00;3.00;;;;;33.82;26.92;100269.09;5090883;27;45570;-79
2021/06/20 11:29:35;;;;;;;;;4.00;3.00;;;;;33.50;27.82;100283.16;5088001;27;46195;-79
2021/06/20 11:32:01;;;;;;;;;4.00;4.00;;;;;33.12;27.48;100286.88;5087664;27;45332;-78
2021/06/20 11:34:26;;;;;;;;;5.00;3.00;;;;;32.85;28.39;100280.25;5087958;27;45498;-69
2021/06/20 11:36:52;;;;;;;;;4.00;4.00;;;;;32.79;27.74;100280.97;5087806;27;69792;-70
2021/06/20 11:39:17;;;;;;;;;5.00;3.33;;;;;33.04;27.65;100278.84;5087866;27;65586;-70
2021/06/20 11:41:48;;;;;;;;;3.67;3.67;;;;;33.40;27.71;100272.59;5090416;27;45345;-70
2021/06/20 11:44:14;;;;;;;;;4.33;4.33;;;;;34.11;27.74;100266.44;5088199;27;45243;-70
2021/06/20 11:46:42;;;;;;;;;3.00;3.00;;;;;35.58;26.56;100263.47;5086286;27;45452;-70
2021/06/20 11:49:14;;;;;;;;;5.00;4.33;;;;;37.29;24.01;100262.69;5085923;27;47221;-69
2021/06/20 11:51:44;;;;;;;;;3.33;3.33;;;;;39.10;21.85;100283.91;5086230;27;45425;-70
2021/06/20 11:54:21;;;;;;;;;4.00;3.67;;;;;40.79;22.19;100297.31;5089680;27;45571;-70
2021/06/20 11:56:54;;;;;;;;;3.33;2.33;;;;;41.48;17.32;100299.28;5086484;27;45414;-69
2021/06/20 11:59:36;;;;;;;;;6.00;5.00;;;;;40.17;20.31;100307.88;5090060;27;45460;-69
2021/06/20 12:02:04;;;;;;;;;2.00;2.00;;;;;38.78;20.96;100301.31;5082238;27;45508;-69
2021/06/20 12:04:34;;;;;;;;;5.00;3.00;;;;;38.76;19.84;100287.00;5081555;27;45469;-69
2021/06/20 12:07:09;;;;;;;;;2.00;2.00;;;;;40.17;19.99;100296.91;5089969;27;45540;-71
2021/06/20 12:09:35;;;;;;;;;2.00;1.00;;;;;41.96;18.89;100292.47;5087647;27;46158;-70
2021/06/20 12:12:02;;;;;;;;;3.00;3.00;;;;;43.18;18.49;100293.41;5085145;27;45404;-69
2021/06/20 12:14:29;;;;;;;;;2.00;2.00;;;;;44.00;16.63;100291.50;5084492;27;45393;-71
2021/06/20 12:16:54;;;;;;;;;2.33;2.33;;;;;44.50;16.83;100272.81;5079896;27;45597;-70
2021/06/20 12:19:21;;;;;;;;;2.00;2.00;;;;;44.92;16.45;100271.94;5074385;27;45352;-71
2021/06/20 12:21:46;;;;;;;;;4.00;2.67;;;;;44.00;16.31;100263.91;5074652;27;45416;-70
2021/06/20 12:24:13;;;;;;;;;2.33;2.33;;;;;43.72;17.17;100250.44;5074168;27;45327;-70
2021/06/20 12:26:38;;;;;;;;;3.00;3.00;;;;;44.01;16.70;100257.31;5074229;28;45460;-69
2021/06/20 12:29:05;;;;;;;;;3.67;3.00;;;;;44.17;16.93;100252.75;5065308;27;46209;-71
2021/06/20 12:31:30;;;;;;;;;2.67;2.33;;;;;43.65;15.56;100250.69;5087136;27;45449;-70
2021/06/20 12:34:03;;;;;;;;;4.00;4.00;;;;;43.21;16.39;100257.09;5071099;28;63797;-69
2021/06/20 12:36:29;;;;;;;;;4.33;3.33;;;;;44.17;16.36;100258.28;5068043;27;45288;-70
2021/06/20 12:38:55;;;;;;;;;4.00;4.00;;;;;42.10;15.74;100254.47;5074160;27;45838;-69
2021/06/20 12:41:22;;;;;;;;;4.33;4.33;;;;;41.35;17.08;100248.19;5065172;28;46241;-70
2021/06/20 12:44:07;;;;;;;;;3.67;3.67;;;;;44.15;16.49;100252.19;5068530;28;45324;-69
2021/06/20 12:46:40;;;;;;;;;3.00;3.00;;;;;45.77;15.87;100243.97;5070555;27;45540;-83
2021/06/20 12:49:11;;;;;;;;;4.00;4.00;;;;;47.64;14.68;100245.47;5063597;28;45603;-70
2021/06/20 12:51:41;;;;;;;;;4.00;4.00;;;;;47.83;13.58;100240.03;5072387;27;45495;-71
2021/06/20 12:54:08;;;;;;;;;4.33;4.33;;;;;48.17;13.84;100241.91;5071010;27;45394;-70
2021/06/20 12:56:33;;;;;;;;;4.00;4.00;;;;;48.28;13.55;100237.13;5075102;27;45372;-70
2021/06/20 12:59:00;;;;;;;;;4.33;4.33;;;;;47.91;12.96;100233.03;5073299;27;46130;-70
2021/06/20 13:01:26;;;;;;;;;7.00;7.00;;;;;46.53;13.11;100220.03;5070337;28;45397;-70
2021/06/20 13:03:52;;;;;;;;;5.00;5.00;;;;;45.23;14.22;100225.09;5061161;28;45520;-70
2021/06/20 13:06:19;;;;;;;;;4.00;4.00;;;;;43.97;15.17;100227.75;5073108;27;45402;-70
2021/06/20 13:08:45;;;;;;;;;4.00;4.00;;;;;42.69;16.02;100223.66;5075311;27;46206;-70
2021/06/20 13:11:11;;;;;;;;;3.00;3.00;;;;;41.45;16.38;100225.56;5066941;27;68001;-70
2021/06/20 13:13:36;;;;;;;;;3.67;3.67;;;;;40.10;18.01;100229.31;5066942;28;57011;-70
2021/06/20 13:16:01;;;;;;;;;4.00;4.00;;;;;39.25;18.55;100224.09;5059167;28;51515;-70
2021/06/20 13:18:27;;;;;;;;;3.00;3.00;;;;;38.63;19.34;100216.03;5068613;27;46884;-70
2021/06/20 13:20:52;;;;;;;;;4.67;3.67;;;;;37.71;20.36;100207.63;5073195;28;52603;-70
2021/06/20 13:23:18;;;;;;;;;6.00;4.67;;;;;36.93;21.53;100197.78;5073607;27;45551;-70
2021/06/20 13:25:46;;;;;;;;;4.67;4.67;;;;;36.28;21.74;100195.88;5072816;27;45272;-70
2021/06/20 13:28:11;;;;;;;;;4.67;3.67;;;;;35.54;22.56;100194.19;5072912;27;47119;-69
2021/06/20 13:30:37;;;;;;;;;3.33;3.33;;;;;35.03;23.34;100205.53;5053969;28;71544;-70
2021/06/20 13:33:02;;;;;;;;;4.67;4.67;;;;;34.65;23.79;100208.72;5072781;27;45288;-72
2021/06/20 13:35:27;;;;;;;;;4.00;3.00;;;;;34.44;24.46;100205.03;5074018;27;45595;-71
2021/06/20 13:37:53;;;;;;;;;8.00;8.00;;;;;34.11;24.88;100187.66;5071148;27;51275;-70
2021/06/20 13:40:20;;;;;;;;;5.33;4.33;;;;;34.09;25.25;100182.47;5072052;27;45458;-71
2021/06/20 13:42:46;;;;;;;;;5.67;5.67;;;;;34.38;25.23;100181.38;5073811;27;45497;-70
2021/06/20 13:45:13;;;;;;;;;4.00;3.33;;;;;34.50;24.77;100176.22;5072223;27;45522;-70
2021/06/20 13:47:38;;;;;;;;;5.00;5.00;;;;;34.58;24.83;100172.47;5074408;27;46379;-71
2021/06/20 13:50:05;;;;;;;;;1.67;0.67;;;;;34.51;25.07;100169.72;5071464;28;45521;-71
2021/06/20 13:52:30;;;;;;;;;3.33;3.33;;;;;34.22;25.29;100160.78;5070787;27;45630;-72
2021/06/20 13:54:59;;;;;;;;;3.67;3.67;;;;;33.97;25.41;100152.25;5064733;27;54465;-70
2021/06/20 13:57:25;;;;;;;;;4.67;4.67;;;;;33.72;26.09;100167.31;5065232;28;46155;-70
2021/06/20 13:59:50;;;;;;;;;3.00;3.00;;;;;33.60;25.95;100161.56;5070782;28;59005;-70
2021/06/20 14:02:16;;;;;;;;;4.00;4.00;;;;;33.81;25.94;100149.84;5068761;28;45387;-70
2021/06/20 14:04:41;;;;;;;;;2.00;2.00;;;;;34.23;25.79;100146.19;5070202;27;45437;-69
2021/06/20 14:07:07;;;;;;;;;3.00;3.00;;;;;34.62;25.54;100146.63;5063603;27;46205;-71
2021/06/20 14:09:32;;;;;;;;;6.00;4.00;;;;;34.34;25.58;100139.34;5056271;28;45460;-70
2021/06/20 14:11:57;;;;;;;;;4.00;3.00;;;;;33.87;26.27;100131.91;5073118;27;45315;-71
2021/06/20 14:14:23;;;;;;;;;4.33;4.33;;;;;33.63;25.81;100123.16;5072498;27;45400;-71
2021/06/20 14:16:48;;;;;;;;;5.67;4.33;;;;;33.46;26.65;100122.56;5067878;27;48072;-71
2021/06/20 14:19:14;;;;;;;;;1.00;1.00;;;;;33.40;26.37;100128.81;5071022;27;45425;-71
2021/06/20 14:21:39;;;;;;;;;4.67;4.67;;;;;33.58;26.63;100110.19;5070035;28;61281;-71
2021/06/20 14:24:05;;;;;;;;;4.33;4.33;;;;;33.60;26.85;100110.84;5052732;28;45370;-70
2021/06/20 14:26:31;;;;;;;;;3.00;3.00;;;;;33.41;26.48;100109.59;5071875;28;46948;-71
2021/06/20 14:28:56;;;;;;;;;4.00;4.00;;;;;33.14;26.69;100108.53;5071984;27;45463;-72
2021/06/20 14:31:21;;;;;;;;;5.67;4.00;;;;;33.15;27.04;100099.34;5072219;27;45427;-73
2021/06/20 14:33:47;;;;;;;;;3.00;3.00;;;;;33.37;26.85;100094.78;5070825;27;45302;-71
2021/06/20 14:36:15;;;;;;;;;3.00;3.00;;;;;33.26;27.72;100098.00;5069749;27;46962;-72
2021/06/20 14:38:41;;;;;;;;;3.00;3.00;;;;;33.03;27.66;100095.44;5073059;27;45314;-71
2021/06/20 14:41:08;;;;;;;;;1.67;1.67;;;;;32.68;27.55;100094.44;5072546;27;45354;-71
2021/06/20 14:43:33;;;;;;;;;5.00;4.00;;;;;32.60;27.67;100079.13;5071944;27;45465;-71
2021/06/20 14:45:58;;;;;;;;;3.67;3.67;;;;;32.75;28.50;100084.50;5069574;28;46329;-72
2021/06/20 14:48:24;;;;;;;;;2.67;2.67;;;;;32.71;28.00;100073.22;5070914;27;58233;-72
2021/06/20 14:50:49;;;;;;;;;3.67;3.67;;;;;32.53;27.95;100083.63;5071602;28;45573;-71
2021/06/20 14:53:15;;;;;;;;;1.33;1.33;;;;;32.46;28.09;100069.97;5069430;28;49131;-70
2021/06/20 14:55:41;;;;;;;;;2.00;2.00;;;;;32.54;27.79;100071.78;5071326;27;46887;-70
2021/06/20 14:58:06;;;;;;;;;3.00;3.00;;;;;32.62;27.72;100074.38;5071499;27;45354;-70
2021/06/20 15:00:31;;;;;;;;;3.00;3.00;;;;;32.60;27.35;100075.59;5072177;27;45543;-71
2021/06/20 15:02:57;;;;;;;;;2.33;2.33;;;;;32.76;27.74;100064.53;5073389;27;48574;-69
2021/06/20 15:05:23;;;;;;;;;3.00;3.00;;;;;32.76;27.11;100067.22;5072077;27;46191;-70
2021/06/20 15:07:48;;;;;;;;;2.00;2.00;;;;;32.58;27.47;100070.34;5071324;27;45353;-71
2021/06/20 15:10:14;;;;;;;;;3.00;3.00;;;;;32.41;27.91;100064.28;5071261;27;45326;-71
2021/06/20 15:12:40;;;;;;;;;3.00;3.00;;;;;32.44;28.45;100063.94;5069958;27;48110;-71
2021/06/20 15:15:06;;;;;;;;;2.67;1.67;;;;;32.71;27.74;100062.38;5071535;27;45978;-72
2021/06/20 15:17:31;;;;;;;;;3.33;3.33;;;;;32.65;28.30;100065.00;5067948;27;45539;-70
2021/06/20 15:19:56;;;;;;;;;3.00;3.00;;;;;32.32;27.77;100055.44;5067348;27;57254;-70
2021/06/20 15:22:22;;;;;;;;;3.00;3.00;;;;;31.95;28.03;100057.25;5070941;27;63631;-70
2021/06/20 15:24:47;;;;;;;;;3.00;2.00;;;;;31.59;28.68;100051.69;5070951;27;54556;-70
2021/06/20 15:27:13;;;;;;;;;1.33;1.33;;;;;31.30;29.32;100045.16;5071684;27;45381;-70
2021/06/20 15:29:38;;;;;;;;;3.00;3.00;;;;;31.12;29.62;100052.75;5073825;27;45331;-70
2021/06/20 15:32:14;;;;;;;;;3.00;3.00;;;;;30.91;29.81;100056.13;5068613;28;45513;-69
2021/06/20 15:34:39;;;;;;;;;7.33;7.33;;;;;30.63;30.13;100062.03;5070442;27;47100;-70
2021/06/20 15:37:05;;;;;;;;;4.33;4.33;;;;;30.45;30.58;100073.09;5071219;27;45344;-70
2021/06/20 15:39:30;;;;;;;;;4.00;3.67;;;;;30.29;30.38;100066.91;5063870;27;55011;-69
2021/06/20 15:41:55;;;;;;;;;3.67;3.33;;;;;30.29;31.16;100056.97;5067898;27;61723;-71
2021/06/20 15:44:21;;;;;;;;;3.00;3.00;;;;;30.24;31.40;100062.84;5069763;27;47019;-70
2021/06/20 15:46:46;;;;;;;;;3.00;3.00;;;;;30.08;31.50;100060.22;5069531;27;70892;-78
2021/06/20 15:49:11;;;;;;;;;2.67;2.67;;;;;29.94;31.85;100066.34;5068593;27;52792;-70
2021/06/20 15:51:37;;;;;;;;;3.33;3.33;;;;;29.78;31.61;100064.53;5068740;27;56412;-72
2021/06/20 15:54:02;;;;;;;;;3.67;3.67;;;;;29.58;32.44;100059.50;5071579;27;59337;-71
2021/06/20 15:56:28;;;;;;;;;4.50;3.00;;;;;29.47;32.50;100062.53;5073556;27;45283;-70
2021/06/20 15:58:53;;;;;;;;;3.33;3.33;;;;;29.39;32.27;100060.69;5052555;28;45440;-71
2021/06/20 16:01:18;;;;;;;;;4.00;4.00;;;;;29.33;32.59;100055.97;5064368;27;45499;-72
2021/06/20 16:03:44;;;;;;;;;3.00;3.00;;;;;29.30;32.70;100040.13;5067086;27;65142;-72
2021/06/20 16:06:10;;;;;;;;;3.00;2.00;;;;;29.20;34.02;100045.69;5067479;27;53790;-72
2021/06/20 16:08:35;;;;;;;;;4.00;4.00;;;;;28.96;34.36;100043.81;5072541;27;45454;-71
2021/06/20 16:11:01;;;;;;;;;2.67;2.67;;;;;28.71;34.83;100037.53;5070398;27;52593;-72
2021/06/20 16:13:26;;;;;;;;;3.00;3.00;;;;;28.53;35.71;100035.00;5066617;27;51432;-72
2021/06/20 16:15:52;;;;;;;;;4.00;4.00;;;;;28.52;35.48;100037.84;5071329;27;45450;-70
2021/06/20 16:18:17;;;;;;;;;5.00;4.00;;;;;28.54;35.67;100033.97;5068339;28;53828;-71
2021/06/20 16:20:43;;;;;;;;;3.33;3.33;;;;;28.54;35.45;100036.66;5067652;27;45448;-69
2021/06/20 16:23:10;;;;;;;;;5.00;4.00;;;;;28.48;36.02;100031.09;5070650;27;45450;-70
2021/06/20 16:25:35;;;;;;;;;4.00;4.00;;;;;28.42;35.93;100037.13;5061844;28;45242;-69
2021/06/20 16:28:00;;;;;;;;;8.33;5.33;;;;;28.29;36.83;100034.88;5042683;28;61745;-69
2021/06/20 16:30:26;;;;;;;;;4.67;4.67;;;;;28.13;39.03;100038.34;5068936;27;49078;-69
2021/06/20 16:32:52;;;;;;;;;4.67;4.33;;;;;27.83;41.35;100039.72;5061599;27;45389;-68
2021/06/20 16:35:18;;;;;;;;;4.67;4.67;;;;;27.52;42.20;100042.84;5074553;27;45508;-68
2021/06/20 16:37:47;;;;;;;;;7.00;5.00;;;;;27.30;42.04;100039.69;5074852;27;45461;-71
2021/06/20 16:40:14;;;;;;;;;6.00;6.00;;;;;27.15;42.02;100033.16;5072296;27;45516;-70
2021/06/20 16:42:40;;;;;;;;;5.33;5.00;;;;;27.11;43.93;100026.41;5074401;27;46495;-68
2021/06/20 16:45:06;;;;;;;;;6.00;6.00;;;;;27.15;42.82;100022.41;5072989;27;45543;-69
2021/06/20 16:47:32;;;;;;;;;6.67;6.67;;;;;27.30;44.11;100022.72;5072504;27;45513;-70
2021/06/20 16:49:57;;;;;;;;;8.33;7.00;;;;;27.48;43.40;100015.47;5072281;27;61659;-70
2021/06/20 16:52:26;;;;;;;;;5.33;5.33;;;;;27.71;43.06;100012.22;5073547;27;47025;-69
2021/06/20 16:54:55;;;;;;;;;4.00;4.00;;;;;27.83;43.06;100020.88;5073944;27;45335;-71
2021/06/20 16:57:27;;;;;;;;;4.33;4.33;;;;;27.88;42.74;100011.31;5073422;27;45367;-70
2021/06/20 16:59:53;;;;;;;;;4.00;4.00;;;;;27.87;42.43;100015.03;5072228;27;45452;-70
2021/06/20 17:02:19;;;;;;;;;3.33;3.00;;;;;27.82;41.50;100020.03;5071753;27;45641;-70
2021/06/20 17:04:44;;;;;;;;;4.33;4.33;;;;;27.72;41.27;100014.75;5072144;28;45323;-70
2021/06/20 17:07:10;;;;;;;;;5.00;5.00;;;;;27.59;41.75;100019.72;5072700;27;45381;-70
2021/06/20 17:09:36;;;;;;;;;5.00;5.00;;;;;27.49;42.31;100019.81;5070956;27;45576;-71
2021/06/20 17:12:01;;;;;;;;;3.00;3.00;;;;;27.42;41.93;100016.06;5073470;27;67855;-70
2021/06/20 17:14:26;;;;;;;;;4.00;4.00;;;;;27.36;41.94;100014.00;5072713;27;45467;-72
2021/06/20 17:16:52;;;;;;;;;3.33;3.33;;;;;27.35;42.02;100015.03;5070821;28;55077;-71
2021/06/20 17:19:18;;;;;;;;;4.00;4.00;;;;;27.33;42.40;100008.94;5072948;27;45362;-71
2021/06/20 17:21:44;;;;;;;;;5.00;5.00;;;;;27.27;42.44;100006.91;5073495;27;45335;-71
2021/06/20 17:24:09;;;;;;;;;4.00;4.00;;;;;27.20;42.43;100009.38;5073325;27;45429;-71
2021/06/20 17:26:34;;;;;;;;;5.67;4.00;;;;;27.15;42.35;100008.09;5075006;27;54545;-70
2021/06/20 17:29:00;;;;;;;;;7.00;5.00;;;;;27.08;43.07;100007.91;5072267;27;50316;-70
2021/06/20 17:31:25;;;;;;;;;6.50;5.50;;;;;26.91;42.94;100006.94;5072685;27;58083;-70
2021/06/20 17:33:51;;;;;;;;;6.33;6.33;;;;;26.80;44.71;100009.84;5073286;28;45334;-71
2021/06/20 17:36:18;;;;;;;;;6.75;5.00;;;;;26.66;45.00;100013.91;5073095;27;45670;-70
2021/06/20 17:38:43;;;;;;;;;4.00;4.00;;;;;26.46;45.67;100019.38;5070900;28;45457;-71
2021/06/20 17:41:08;;;;;;;;;5.75;4.75;;;;;26.25;46.67;100030.38;5071214;27;49032;-71
2021/06/20 17:43:36;;;;;;;;;4.00;4.00;;;;;26.05;47.78;100021.59;5071765;27;65972;-70
2021/06/20 17:46:02;;;;;;;;;6.67;5.00;;;;;25.87;48.37;100033.25;5072492;27;45409;-69
2021/06/20 17:48:27;;;;;;;;;5.00;5.00;;;;;25.63;48.84;100031.88;5071310;27;45461;-70
2021/06/20 17:50:53;;;;;;;;;5.00;4.67;;;;;25.42;49.82;100042.78;5074754;27;45389;-70
2021/06/20 17:53:18;;;;;;;;;8.25;8.25;;;;;25.21;50.13;100038.41;5070430;27;56741;-70
2021/06/20 17:55:43;;;;;;;;;6.75;5.25;;;;;25.06;50.79;100045.16;5068137;27;45491;-71
2021/06/20 17:58:09;;;;;;;;;6.00;5.50;;;;;24.89;51.14;100051.25;5060880;28;58919;-69
2021/06/20 18:00:34;;;;;;;;;5.67;5.67;;;;;24.74;50.49;100061.47;5071788;27;63588;-70
2021/06/20 18:03:00;;;;;;;;;6.00;6.00;;;;;24.59;51.99;100056.53;5073900;27;55010;-70
2021/06/20 18:05:25;;;;;;;;;5.50;5.25;;;;;24.51;53.04;100048.38;5073574;27;45343;-70
2021/06/20 18:07:51;;;;;;;;;5.50;5.50;;;;;24.48;52.47;100058.47;5072135;27;45523;-70
2021/06/20 18:10:17;;;;;;;;;6.50;6.00;;;;;24.50;53.89;100045.81;5072610;27;46019;-70
2021/06/20 18:12:43;;;;;;;;;4.00;4.00;;;;;24.50;52.97;100056.50;5070607;28;45427;-70
2021/06/20 18:15:09;;;;;;;;;3.50;3.00;;;;;24.52;52.82;100070.59;5071002;27;61660;-70
2021/06/20 18:17:35;;;;;;;;;4.50;4.00;;;;;24.51;52.36;100068.94;5074523;27;45357;-71
2021/06/20 18:20:00;;;;;;;;;3.00;3.00;;;;;24.52;53.33;100070.59;5071449;28;47113;-71
2021/06/20 18:22:26;;;;;;;;;5.00;4.25;;;;;24.45;53.51;100067.59;5070957;27;54804;-70
2021/06/20 18:24:51;;;;;;;;;5.75;5.75;;;;;24.37;55.09;100075.47;5071730;28;45444;-69
2021/06/20 18:27:17;;;;;;;;;5.00;5.00;;;;;24.29;55.29;100067.28;5068871;28;64795;-72
2021/06/20 18:29:42;;;;;;;;;4.75;4.75;;;;;24.22;55.06;100055.41;5070161;27;57110;-69
2021/06/20 18:32:07;;;;;;;;;6.00;6.00;;;;;24.20;56.06;100065.41;5070642;27;53449;-71
2021/06/20 18:34:33;;;;;;;;;10.00;7.75;;;;;24.14;56.65;100067.63;5071932;27;62519;-69
2021/06/20 18:36:59;;;;;;;;;7.00;7.00;;;;;24.07;56.72;100057.63;5072873;27;45368;-70
2021/06/20 18:39:24;;;;;;;;;6.00;6.00;;;;;23.92;57.16;100047.28;5071797;27;66230;-70
2021/06/20 18:41:50;;;;;;;;;7.25;6.75;;;;;23.91;57.73;100048.28;5069880;28;60403;-70
2021/06/20 18:44:15;;;;;;;;;7.50;7.50;;;;;23.92;57.51;100051.78;5067819;27;66578;-70
2021/06/20 18:46:40;;;;;;;;;6.00;6.00;;;;;23.89;58.46;100050.22;5067706;28;45368;-70
2021/06/20 18:49:06;;;;;;;;;7.50;7.50;;;;;23.81;58.36;100051.88;5071654;28;45371;-70
2021/06/20 18:51:31;;;;;;;;;5.00;5.00;;;;;23.71;58.39;100059.81;5071961;27;64283;-70
2021/06/20 18:53:57;;;;;;;;;6.00;6.00;;;;;23.62;58.92;100060.59;5068950;28;59724;-70
2021/06/20 18:56:22;;;;;;;;;7.50;6.75;;;;;23.50;58.63;100065.16;5073209;27;45359;-70
2021/06/20 18:58:48;;;;;;;;;5.25;4.00;;;;;23.41;58.99;100060.63;5071852;27;46205;-71
2021/06/20 19:01:14;;;;;;;;;6.75;6.75;;;;;23.30;60.58;100065.03;5072862;28;45626;-71
2021/06/20 19:03:40;;;;;;;;;7.50;7.00;;;;;23.18;60.82;100070.56;5071322;27;45744;-70
2021/06/20 19:06:05;;;;;;;;;6.50;5.50;;;;;23.07;62.01;100064.28;5072835;27;56656;-71
2021/06/20 19:08:31;;;;;;;;;7.50;7.50;;;;;23.00;63.71;100072.91;5087622;27;46131;-69
2021/06/20 19:10:56;;;;;;;;;6.00;6.00;;;;;22.94;63.13;100065.41;5069930;27;45268;-69
2021/06/20 19:13:21;;;;;;;;;8.75;7.75;;;;;22.85;62.49;100054.50;5071859;28;45259;-69
2021/06/20 19:15:47;;;;;;;;;11.50;8.75;;;;;22.84;63.43;100052.81;5071969;27;50336;-70
2021/06/20 19:18:12;;;;;;;;;9.50;9.50;;;;;22.84;63.52;100041.31;5071216;27;68357;-69
2021/06/20 19:20:38;;;;;;;;;8.50;7.25;;;;;22.85;63.23;100043.81;5073755;27;66710;-72
2021/06/20 19:23:04;;;;;;;;;13.00;13.00;;;;;22.87;63.46;100041.88;5072579;27;45384;-70
2021/06/20 19:25:31;;;;;;;;;14.00;14.00;;;;;22.90;63.72;100052.28;5072122;27;45647;-70
2021/06/20 19:27:56;;;;;;;;;8.50;8.50;;;;;22.91;65.02;100055.84;5070741;28;45434;-70
2021/06/20 19:30:23;;;;;;;;;10.00;10.00;;;;;22.83;63.19;100050.25;5073107;27;45313;-70
2021/06/20 19:32:49;;;;;;;;;13.25;11.75;;;;;22.81;64.09;100047.75;5077856;27;45438;-72
2021/06/20 19:35:14;;;;;;;;;6.75;6.75;;;;;22.83;64.12;100047.59;5075596;27;45612;-69
2021/06/20 19:37:40;;;;;;;;;10.25;9.00;;;;;22.84;63.74;100049.31;5074570;27;66449;-72
2021/06/20 19:40:06;;;;;;;;;10.25;8.25;;;;;22.86;63.54;100047.38;5076164;27;45604;-71
2021/06/20 19:42:32;;;;;;;;;7.75;7.75;;;;;22.87;63.70;100036.53;5073729;27;45618;-69
2021/06/20 19:44:57;;;;;;;;;9.50;8.50;;;;;22.90;63.57;100030.09;5077549;27;45526;-70
2021/06/20 19:47:23;;;;;;;;;8.00;8.00;;;;;22.93;63.87;100037.88;5074816;27;45567;-70
2021/06/20 19:49:48;;;;;;;;;12.25;11.75;;;;;22.93;64.00;100031.66;5073643;27;58599;-70
2021/06/20 19:52:14;;;;;;;;;14.75;10.00;;;;;22.92;64.50;100029.97;5075185;27;45363;-71
2021/06/20 19:54:39;;;;;;;;;8.75;7.75;;;;;22.92;64.33;100032.66;5075706;27;45448;-72
2021/06/20 19:57:05;;;;;;;;;9.00;6.75;;;;;22.93;64.39;100027.19;5078238;22;47237;-78
2021/06/20 19:59:31;;;;;;;;;8.50;7.50;;;;;22.93;64.06;100034.34;5057814;28;45476;-78
2021/06/20 20:01:56;;;;;;;;;9.50;6.75;;;;;22.94;63.79;100038.72;5052412;28;45428;-79
2021/06/20 20:04:25;;;;;;;;;8.00;8.00;;;;;22.95;63.92;100043.06;5055948;28;60905;-78
2021/06/20 20:06:50;;;;;;;;;9.50;9.50;;;;;22.96;64.29;100042.09;5056568;28;47084;-77
2021/06/20 20:09:15;;;;;;;;;10.00;9.00;;;;;22.97;63.88;100046.47;5055572;28;45411;-78
2021/06/20 20:11:41;;;;;;;;;9.25;7.75;;;;;22.98;63.50;100054.38;5057492;28;45534;-78
2021/06/20 20:14:06;;;;;;;;;8.50;8.50;;;;;23.01;63.22;100045.28;5055744;28;62074;-78
2021/06/20 20:16:32;;;;;;;;;10.50;9.25;;;;;23.02;63.47;100049.63;5053971;28;71409;-78
2021/06/20 20:18:57;;;;;;;;;7.25;7.25;;;;;23.01;63.27;100048.78;5054634;28;65210;-79
2021/06/20 20:21:22;;;;;;;;;9.50;6.75;;;;;22.97;63.26;100041.13;5056931;28;45461;-79
2021/06/20 20:23:48;;;;;;;;;9.00;8.50;;;;;22.94;63.09;100033.38;5057512;28;45556;-78
2021/06/20 20:26:13;;;;;;;;;7.75;7.75;;;;;22.87;62.83;100033.03;5055833;28;46961;-78
2021/06/20 20:28:39;;;;;;;;;11.75;11.75;;;;;22.83;62.76;100036.91;5056663;28;45356;-78
2021/06/20 20:31:04;;;;;;;;;8.75;8.75;;;;;22.78;63.02;100041.78;5056600;28;45373;-78
2021/06/20 20:33:30;;;;;;;;;15.25;14.25;;;;;22.73;62.87;100042.16;5056546;28;45427;-76
2021/06/20 20:35:57;;;;;;;;;13.25;12.50;;;;;22.73;62.70;100042.16;5056115;28;46219;-81
2021/06/20 20:38:23;;;;;;;;;9.25;7.50;;;;;22.75;63.15;100036.72;5047639;28;45415;-78
2021/06/20 20:40:48;;;;;;;;;11.75;9.75;;;;;22.73;63.06;100036.84;5051698;28;45503;-83
2021/06/20 20:43:14;;;;;;;;;7.75;6.75;;;;;22.74;62.76;100040.34;5038489;28;45569;-80
2021/06/20 20:45:39;;;;;;;;;9.00;8.00;;;;;22.78;62.70;100042.63;5054551;28;46009;-80
2021/06/20 20:48:07;;;;;;;;;8.50;8.00;;;;;22.79;63.31;100039.00;5056485;28;45567;-82
2021/06/20 20:50:33;;;;;;;;;7.50;7.00;;;;;22.75;63.08;100053.56;5056858;28;45503;-85
2021/06/20 20:52:58;;;;;;;;;10.00;9.00;;;;;22.65;63.26;100040.13;5054629;28;45581;-82
2021/06/20 20:55:24;;;;;;;;;8.00;8.00;;;;;22.61;63.48;100051.19;5056134;28;46817;-82
2021/06/20 20:57:49;;;;;;;;;11.00;8.75;;;;;22.58;63.56;100049.63;5053729;28;45448;-78
2021/06/20 21:00:18;;;;;;;;;7.25;7.25;;;;;22.57;63.28;100055.94;5052595;28;45687;-81
2021/06/20 21:02:45;;;;;;;;;8.50;5.50;;;;;22.59;63.52;100047.78;5056699;28;45414;-85
2021/06/20 21:05:10;;;;;;;;;8.00;6.75;;;;;22.56;63.44;100054.22;5053008;28;45727;-84
2021/06/20 21:07:36;;;;;;;;;7.75;7.75;;;;;22.52;63.78;100058.09;5053798;28;45557;-85
2021/06/20 21:10:01;;;;;;;;;8.00;8.00;;;;;22.50;63.18;100052.06;5054854;28;54773;-79
2021/06/20 21:12:27;;;;;;;;;8.50;7.50;;;;;22.47;63.74;100053.16;5056305;28;45315;-79
2021/06/20 21:14:52;;;;;;;;;7.00;7.00;;;;;22.41;63.87;100040.31;5056276;28;57471;-78
2021/06/20 21:17:18;;;;;;;;;8.00;8.00;;;;;22.40;63.91;100048.44;5056124;28;45484;-78
2021/06/20 21:19:43;;;;;;;;;7.50;7.00;;;;;22.39;63.97;100049.41;5055690;28;49119;-79
2021/06/20 21:22:08;;;;;;;;;6.75;6.75;;;;;22.34;64.56;100049.78;5054666;28;59315;-79
2021/06/20 21:24:34;;;;;;;;;8.25;8.25;;;;;22.34;64.01;100056.94;5035528;28;45477;-79
2021/06/20 21:26:59;;;;;;;;;7.00;7.00;;;;;22.34;64.20;100049.78;5055947;28;45451;-79
2021/06/20 21:29:25;;;;;;;;;7.50;6.75;;;;;22.33;64.29;100050.75;5056300;28;46098;-79
2021/06/20 21:31:50;;;;;;;;;8.00;7.75;;;;;22.30;64.42;100053.66;5055628;28;45453;-79
2021/06/20 21:34:16;;;;;;;;;7.00;7.00;;;;;22.25;64.32;100059.34;5036255;28;59639;-78
2021/06/20 21:36:41;;;;;;;;;7.00;7.00;;;;;22.21;64.51;100062.38;5055745;28;45432;-78
2021/06/20 21:39:07;;;;;;;;;9.00;8.00;;;;;22.20;64.83;100063.34;5053169;28;45427;-80
2021/06/20 21:41:32;;;;;;;;;7.25;6.00;;;;;22.15;64.98;100058.38;5054798;28;54300;-78
2021/06/20 21:44:01;;;;;;;;;9.25;7.25;;;;;22.13;64.85;100070.13;5050381;28;63115;-76
2021/06/20 21:46:27;;;;;;;;;7.25;7.25;;;;;22.11;64.95;100072.06;5048141;28;45540;-77
2021/06/20 21:48:52;;;;;;;;;6.50;6.50;;;;;22.06;65.03;100070.59;5054603;28;65073;-79
2021/06/20 21:51:18;;;;;;;;;6.25;6.25;;;;;22.04;65.46;100074.38;5054211;28;57661;-79
2021/06/20 21:53:43;;;;;;;;;7.75;7.00;;;;;21.98;65.15;100081.03;5054980;28;46198;-80
2021/06/20 21:56:08;;;;;;;;;11.00;10.00;;;;;21.94;65.47;100082.22;5053928;28;45546;-79
2021/06/20 21:58:34;;;;;;;;;7.25;7.25;;;;;21.93;65.61;100083.22;5050453;28;45548;-79
2021/06/20 22:00:59;;;;;;;;;10.75;10.25;;;;;21.93;65.80;100083.22;5026326;28;45521;-78
2021/06/20 22:03:25;;;;;;;;;8.25;7.25;;;;;21.95;65.57;100083.06;5054899;28;55107;-77
2021/06/20 22:05:50;;;;;;;;;7.25;7.25;;;;;21.95;65.90;100080.41;5053943;28;55549;-79
2021/06/20 22:08:16;;;;;;;;;6.25;5.25;;;;;21.94;66.08;100082.22;5053117;28;62921;-80
2021/06/20 22:10:41;;;;;;;;;7.25;7.25;;;;;21.94;66.02;100082.22;5054681;28;59453;-78
2021/06/20 22:13:08;;;;;;;;;6.75;6.75;;;;;21.95;65.63;100078.63;5053950;28;45969;-77
2021/06/20 22:15:33;;;;;;;;;7.00;7.00;;;;;21.95;65.27;100086.63;5053682;28;45472;-78
2021/06/20 22:17:59;;;;;;;;;8.00;8.00;;;;;21.94;65.78;100081.38;5054477;28;60748;-78
2021/06/20 22:20:25;;;;;;;;;7.00;7.00;;;;;21.93;66.28;100079.69;5055175;28;45532;-77
2021/06/20 22:22:51;;;;;;;;;10.75;10.00;;;;;21.90;65.94;100087.91;5054995;28;45491;-77
2021/06/20 22:25:18;;;;;;;;;7.00;7.00;;;;;21.87;65.95;100078.34;5054993;28;45501;-77
2021/06/20 22:27:44;;;;;;;;;6.75;5.50;;;;;21.88;66.07;100077.41;5036496;28;45508;-78